createdAt,value
2022-12-17T00:00:52.064Z,-1.60
2022-12-17T00:04:32.616Z,-1.50
2022-12-17T00:08:16.341Z,-1.50
2022-12-17T00:11:57.050Z,-1.60
2022-12-17T00:15:39.190Z,-1.60
2022-12-17T00:19:19.858Z,-1.60
2022-12-17T00:23:00.243Z,-1.60
2022-12-17T00:26:40.768Z,-1.70
2022-12-17T00:30:21.713Z,-1.70
2022-12-17T00:34:04.815Z,-1.80
2022-12-17T00:37:46.102Z,-1.80
2022-12-17T00:41:26.695Z,-1.80
2022-12-17T00:45:07.396Z,-1.80
2022-12-17T00:48:47.646Z,-1.80
2022-12-17T00:52:29.293Z,-1.80
2022-12-17T00:56:09.708Z,-1.90
2022-12-17T00:59:50.245Z,-1.90
2022-12-17T01:03:32.323Z,-1.90
2022-12-17T01:07:12.809Z,-1.90
2022-12-17T01:10:54.814Z,-1.90
2022-12-17T01:14:42.512Z,-1.90
2022-12-17T01:18:23.637Z,-2.00
2022-12-17T01:22:05.372Z,-1.90
2022-12-17T01:25:45.763Z,-1.90
2022-12-17T01:29:27.378Z,-1.90
2022-12-17T01:33:07.948Z,-2.00
2022-12-17T01:36:48.200Z,-2.00
2022-12-17T01:40:29.503Z,-2.00
2022-12-17T01:44:12.855Z,-2.00
2022-12-17T01:47:58.273Z,-2.00
2022-12-17T01:51:39.184Z,-2.00
2022-12-17T01:55:21.442Z,-2.00
2022-12-17T01:58:58.784Z,-2.00
2022-12-17T02:02:39.576Z,-2.00
2022-12-17T02:06:29.235Z,-2.00
2022-12-17T02:10:27.058Z,-2.00
2022-12-17T02:14:14.724Z,-2.00
2022-12-17T02:18:00.131Z,-1.90
2022-12-17T02:21:44.175Z,-2.00
2022-12-17T02:25:35.137Z,-2.00
2022-12-17T02:29:20.411Z,-2.00
2022-12-17T02:33:03.636Z,-2.00
2022-12-17T02:36:44.632Z,-2.00
2022-12-17T02:40:25.981Z,-2.00
2022-12-17T02:44:06.968Z,-2.10
2022-12-17T02:47:45.509Z,-2.00
2022-12-17T02:51:26.327Z,-2.00
2022-12-17T02:55:06.626Z,-2.00
2022-12-17T02:58:47.293Z,-2.00
2022-12-17T03:02:28.096Z,-2.00
2022-12-17T03:06:09.929Z,-2.00
2022-12-17T03:09:50.584Z,-1.90
2022-12-17T03:13:40.723Z,-1.90
2022-12-17T03:17:22.006Z,-1.90
2022-12-17T03:21:02.321Z,-1.90
2022-12-17T03:24:44.420Z,-1.90
2022-12-17T03:28:26.514Z,-1.90
2022-12-17T03:32:06.946Z,-2.00
2022-12-17T03:35:47.295Z,-2.00
2022-12-17T03:39:27.843Z,-2.00
2022-12-17T03:43:09.825Z,-2.10
2022-12-17T03:46:50.593Z,-2.10
2022-12-17T03:50:31.216Z,-2.10
2022-12-17T03:54:11.878Z,-2.10
2022-12-17T03:57:52.353Z,-2.10
2022-12-17T04:01:34.334Z,-2.10
2022-12-17T04:05:19.936Z,-2.10
2022-12-17T04:09:01.109Z,-2.10
2022-12-17T04:12:41.795Z,-2.10
2022-12-17T04:16:27.612Z,-2.10
2022-12-17T04:20:09.573Z,-2.10
2022-12-17T04:23:50.402Z,-2.10
2022-12-17T04:27:31.009Z,-2.10
2022-12-17T04:31:11.618Z,-2.10
2022-12-17T04:34:51.932Z,-2.10
2022-12-17T04:38:33.925Z,-2.10
2022-12-17T04:42:14.364Z,-2.10
2022-12-17T04:45:54.862Z,-2.10
2022-12-17T04:49:37.379Z,-2.10
2022-12-17T04:53:21.085Z,-2.10
2022-12-17T04:57:03.505Z,-2.10
2022-12-17T05:00:44.123Z,-2.10
2022-12-17T05:04:23.887Z,-2.10
2022-12-17T05:08:09.860Z,-2.00
2022-12-17T05:11:50.411Z,-2.10
2022-12-17T05:15:32.330Z,-2.10
2022-12-17T05:19:13.197Z,-2.10
2022-12-17T05:22:53.900Z,-2.10
2022-12-17T05:26:39.007Z,-2.10
2022-12-17T05:30:19.686Z,-2.10
2022-12-17T05:34:01.511Z,-2.10
2022-12-17T05:37:42.254Z,-2.10
2022-12-17T05:41:23.063Z,-2.10
2022-12-17T05:45:03.876Z,-2.10
2022-12-17T05:48:44.355Z,-2.10
2022-12-17T05:52:26.209Z,-2.00
2022-12-17T05:56:10.194Z,-2.00
2022-12-17T05:59:50.009Z,-2.00
2022-12-17T06:03:30.694Z,-2.00
2022-12-17T06:07:11.135Z,-2.00
2022-12-17T06:10:52.985Z,-2.00
2022-12-17T06:14:33.601Z,-2.00
2022-12-17T06:18:17.125Z,-2.00
2022-12-17T06:21:58.118Z,-2.00
2022-12-17T06:25:40.426Z,-2.00
2022-12-17T06:29:22.448Z,-2.00
2022-12-17T06:33:03.091Z,-2.00
2022-12-17T06:36:43.723Z,-2.00
2022-12-17T06:40:25.315Z,-2.10
2022-12-17T06:44:06.354Z,-2.10
2022-12-17T06:47:48.323Z,-2.10
2022-12-17T06:51:29.043Z,-2.10
2022-12-17T06:55:09.561Z,-2.10
2022-12-17T06:58:50.179Z,-2.10
2022-12-17T07:02:30.913Z,-2.10
2022-12-17T07:06:12.862Z,-2.10
2022-12-17T07:09:53.355Z,-2.10
2022-12-17T07:13:34.946Z,-2.20
2022-12-17T07:17:15.415Z,-2.20
2022-12-17T07:20:55.742Z,-2.20
2022-12-17T07:24:37.592Z,-2.10
2022-12-17T07:28:17.825Z,-2.10
2022-12-17T07:31:59.275Z,-2.10
2022-12-17T07:35:39.838Z,-2.20
2022-12-17T07:39:20.271Z,-2.20
2022-12-17T07:43:02.157Z,-2.20
2022-12-17T07:46:42.835Z,-2.20
2022-12-17T07:50:23.992Z,-2.30
2022-12-17T07:54:04.565Z,-2.30
2022-12-17T07:57:44.883Z,-2.20
2022-12-17T08:01:27.071Z,-2.30
2022-12-17T08:05:07.780Z,-2.30
2022-12-17T08:08:48.102Z,-2.30
2022-12-17T08:12:28.744Z,-2.30
2022-12-17T08:16:11.604Z,-2.20
2022-12-17T08:19:53.275Z,-2.20
2022-12-17T08:23:33.807Z,-2.10
2022-12-17T08:27:14.659Z,-2.10
2022-12-17T08:30:55.081Z,-2.10
2022-12-17T08:34:35.292Z,-2.20
2022-12-17T08:38:22.528Z,-2.20
2022-12-17T08:42:06.147Z,-2.10
2022-12-17T08:45:46.844Z,-2.30
2022-12-17T08:49:27.297Z,-2.30
2022-12-17T08:53:07.640Z,-2.40
2022-12-17T08:56:49.409Z,-2.40
2022-12-17T09:00:30.569Z,-2.50
2022-12-17T09:04:10.910Z,-2.50
2022-12-17T09:07:51.319Z,-2.40
2022-12-17T09:11:32.190Z,-2.60
2022-12-17T09:15:14.125Z,-2.70
2022-12-17T09:18:54.531Z,-2.70
2022-12-17T09:22:34.926Z,-2.80
2022-12-17T09:26:15.999Z,-2.80
2022-12-17T09:29:56.243Z,-2.70
2022-12-17T09:33:38.552Z,-2.70
2022-12-17T09:37:19.472Z,-2.70
2022-12-17T09:41:01.664Z,-2.70
2022-12-17T09:44:47.723Z,-2.70
2022-12-17T09:48:37.512Z,-2.80
2022-12-17T09:52:19.597Z,-2.80
2022-12-17T09:56:05.656Z,-2.80
2022-12-17T09:59:48.044Z,-2.90
2022-12-17T10:03:31.194Z,-3.10
2022-12-17T10:07:11.951Z,-3.10
2022-12-17T10:10:59.604Z,-3.00
2022-12-17T10:14:41.456Z,-3.00
2022-12-17T10:18:25.571Z,-3.00
2022-12-17T10:22:06.148Z,-3.20
2022-12-17T10:25:46.419Z,-3.10
2022-12-17T10:29:32.332Z,-2.90
2022-12-17T10:33:14.949Z,-2.90
2022-12-17T10:36:55.282Z,-3.00
2022-12-17T10:40:42.815Z,-3.00
2022-12-17T10:48:22.828Z,-3.10
2022-12-17T10:52:03.635Z,-3.20
2022-12-17T10:55:46.539Z,-3.10
2022-12-17T10:59:31.192Z,-3.20
2022-12-17T11:03:13.093Z,-3.20
2022-12-17T11:06:56.145Z,-3.20
2022-12-17T11:10:39.876Z,-3.30
2022-12-17T11:14:21.816Z,-3.30
2022-12-17T11:18:09.460Z,-3.40
2022-12-17T11:21:58.431Z,-3.50
2022-12-17T11:25:47.975Z,-3.30
2022-12-17T11:29:32.050Z,-3.10
2022-12-17T11:33:21.807Z,-3.00
2022-12-17T11:37:09.051Z,-3.00
2022-12-17T11:40:57.557Z,-3.00
2022-12-17T11:44:50.804Z,-3.10
2022-12-17T11:48:36.229Z,-3.10
2022-12-17T11:52:23.518Z,-3.10
2022-12-17T11:56:12.303Z,-3.20
2022-12-17T11:59:59.513Z,-3.20
2022-12-17T12:03:55.270Z,-3.30
2022-12-17T12:07:42.675Z,-3.10
2022-12-17T12:11:37.978Z,-3.00
2022-12-17T12:15:29.716Z,-3.10
2022-12-17T12:19:29.539Z,-3.20
2022-12-17T12:23:21.830Z,-3.20
2022-12-17T12:27:11.134Z,-3.20
2022-12-17T12:30:58.645Z,-3.20
2022-12-17T12:34:43.835Z,-3.30
2022-12-17T12:38:34.995Z,-3.40
2022-12-17T12:42:22.263Z,-3.30
2022-12-17T12:46:09.566Z,-3.40
2022-12-17T12:49:50.598Z,-3.40
2022-12-17T12:53:32.861Z,-3.50
2022-12-17T12:57:19.445Z,-3.60
2022-12-17T13:01:13.288Z,-3.60
2022-12-17T13:04:55.677Z,-3.50
2022-12-17T13:08:25.477Z,-3.60
2022-12-17T13:11:50.335Z,-3.60
2022-12-17T13:15:33.363Z,-3.60
2022-12-17T13:19:03.400Z,-3.40
2022-12-17T13:22:30.052Z,-3.40
2022-12-17T13:26:18.176Z,-3.40
2022-12-17T13:29:41.139Z,-3.50
2022-12-17T13:33:29.682Z,-3.40
2022-12-17T13:37:00.920Z,-3.40
2022-12-17T13:40:35.349Z,-3.50
2022-12-17T13:44:03.080Z,-3.60
2022-12-17T13:47:28.598Z,-3.60
2022-12-17T13:50:55.892Z,-3.40
2022-12-17T13:54:20.577Z,-3.30
2022-12-17T13:57:46.748Z,-3.30
2022-12-17T14:01:15.940Z,-3.20
2022-12-17T14:04:39.212Z,-3.20
2022-12-17T14:08:04.273Z,-3.30
2022-12-17T14:11:45.073Z,-3.30
2022-12-17T14:15:21.780Z,-3.50
2022-12-17T14:18:50.004Z,-3.50
2022-12-17T14:22:19.883Z,-3.60
2022-12-17T14:25:45.114Z,-3.70
2022-12-17T14:29:14.019Z,-3.60
2022-12-17T14:32:38.471Z,-3.60
2022-12-17T14:36:07.062Z,-3.60
2022-12-17T14:39:32.026Z,-3.60
2022-12-17T14:43:00.136Z,-3.70
2022-12-17T14:46:23.491Z,-3.80
2022-12-17T14:49:55.877Z,-3.70
2022-12-17T14:53:28.288Z,-3.70
2022-12-17T14:56:51.402Z,-3.80
2022-12-17T15:00:15.527Z,-3.90
2022-12-17T15:03:41.409Z,-4.00
2022-12-17T15:07:05.871Z,-4.30
2022-12-17T15:10:30.093Z,-4.60
2022-12-17T15:13:56.346Z,-4.90
2022-12-17T15:17:20.068Z,-5.10
2022-12-17T15:20:43.232Z,-5.20
2022-12-17T15:24:11.570Z,-5.40
2022-12-17T15:27:35.810Z,-5.60
2022-12-17T15:30:58.759Z,-5.80
2022-12-17T15:34:21.713Z,-5.80
2022-12-17T15:37:44.591Z,-5.90
2022-12-17T15:41:21.773Z,-5.90
2022-12-17T15:44:45.980Z,-6.00
2022-12-17T15:48:09.012Z,-6.00
2022-12-17T15:51:31.892Z,-6.10
2022-12-17T15:54:54.764Z,-6.40
2022-12-17T15:58:19.033Z,-6.60
2022-12-17T16:01:43.360Z,-6.80
2022-12-17T16:05:07.423Z,-7.00
2022-12-17T16:08:30.711Z,-7.10
2022-12-17T16:11:55.040Z,-7.10
2022-12-17T16:15:18.176Z,-7.10
2022-12-17T16:18:42.512Z,-6.90
2022-12-17T16:22:05.529Z,-6.90
2022-12-17T16:25:28.409Z,-7.00
2022-12-17T16:28:51.321Z,-7.10
2022-12-17T16:32:14.544Z,-7.00
2022-12-17T16:35:38.780Z,-7.00
2022-12-17T16:39:01.646Z,-6.90
2022-12-17T16:42:24.539Z,-6.90
2022-12-17T16:45:49.703Z,-7.00
2022-12-17T16:49:14.476Z,-7.00
2022-12-17T16:52:38.946Z,-7.00
2022-12-17T16:56:01.800Z,-6.90
2022-12-17T16:59:25.120Z,-7.00
2022-12-17T17:02:52.922Z,-6.90
2022-12-17T17:06:17.228Z,-7.00
2022-12-17T17:09:41.477Z,-7.10
2022-12-17T17:13:05.075Z,-7.20
2022-12-17T17:16:28.919Z,-7.30
2022-12-17T17:19:52.024Z,-7.40
2022-12-17T17:23:14.917Z,-7.40
2022-12-17T17:26:39.584Z,-7.50
2022-12-17T17:30:03.902Z,-7.60
2022-12-17T17:33:30.489Z,-7.70
2022-12-17T17:36:53.379Z,-7.80
2022-12-17T17:40:16.308Z,-7.90
2022-12-17T17:43:40.561Z,-8.00
2022-12-17T17:47:03.966Z,-8.00
2022-12-17T17:50:26.889Z,-8.00
2022-12-17T17:53:51.592Z,-8.00
2022-12-17T17:57:14.505Z,-8.00
2022-12-17T18:00:39.816Z,-8.00
2022-12-17T18:04:03.922Z,-7.80
2022-12-17T18:07:27.670Z,-7.60
2022-12-17T18:10:58.381Z,-7.40
2022-12-17T18:14:21.293Z,-7.30
2022-12-17T18:17:46.505Z,-7.30
2022-12-17T18:21:12.019Z,-7.30
2022-12-17T18:24:34.920Z,-7.10
2022-12-17T18:27:57.859Z,-6.90
2022-12-17T18:31:22.928Z,-6.80
2022-12-17T18:34:47.281Z,-6.80
2022-12-17T18:38:10.304Z,-6.70
2022-12-17T18:41:50.740Z,-6.60
2022-12-17T18:45:13.719Z,-6.50
2022-12-17T18:48:36.972Z,-6.40
2022-12-17T18:52:01.660Z,-6.30
2022-12-17T18:55:24.572Z,-6.20
2022-12-17T18:58:47.502Z,-6.00
2022-12-17T19:02:12.503Z,-5.90
2022-12-17T19:05:36.494Z,-5.80
2022-12-17T19:09:03.974Z,-5.80
2022-12-17T19:12:26.856Z,-5.90
2022-12-17T19:15:49.756Z,-5.80
2022-12-17T19:19:13.886Z,-5.70
2022-12-17T19:22:36.824Z,-5.80
2022-12-17T19:26:08.695Z,-5.70
2022-12-17T19:29:31.782Z,-5.70
2022-12-17T19:32:54.652Z,-5.70
2022-12-17T19:36:22.612Z,-5.80
2022-12-17T19:39:49.531Z,-5.70
2022-12-17T19:43:13.765Z,-5.70
2022-12-17T19:46:37.793Z,-5.90
2022-12-17T19:50:00.706Z,-6.00
2022-12-17T19:53:27.207Z,-6.00
2022-12-17T19:56:50.103Z,-6.00
2022-12-17T20:00:15.479Z,-6.00
2022-12-17T20:03:39.587Z,-6.00
2022-12-17T20:07:02.566Z,-6.00
2022-12-17T20:10:25.466Z,-6.00
2022-12-17T20:13:54.244Z,-6.00
2022-12-17T20:17:20.250Z,-6.10
2022-12-17T20:20:43.136Z,-6.00
2022-12-17T20:24:06.573Z,-6.00
2022-12-17T20:27:29.897Z,-5.90
2022-12-17T20:30:58.080Z,-5.80
2022-12-17T20:34:26.219Z,-5.70
2022-12-17T20:37:49.168Z,-5.70
2022-12-17T20:41:13.689Z,-5.80
2022-12-17T20:44:36.592Z,-5.70
2022-12-17T20:47:59.493Z,-5.70
2022-12-17T20:51:26.638Z,-5.70
2022-12-17T20:54:50.200Z,-5.60
2022-12-17T20:58:13.701Z,-5.60
2022-12-17T21:01:38.049Z,-5.40
2022-12-17T21:05:01.077Z,-5.30
2022-12-17T21:08:25.304Z,-5.30
2022-12-17T21:11:48.404Z,-5.20
2022-12-17T21:15:11.301Z,-5.10
2022-12-17T21:18:34.968Z,-5.10
2022-12-17T21:21:57.989Z,-5.10
2022-12-17T21:25:22.253Z,-5.20
2022-12-17T21:28:46.262Z,-5.20
2022-12-17T21:32:09.651Z,-5.20
2022-12-17T21:35:32.556Z,-5.20
2022-12-17T21:38:56.084Z,-5.00
2022-12-17T21:42:37.878Z,-4.80
2022-12-17T21:46:00.812Z,-4.70
2022-12-17T21:49:23.824Z,-4.50
2022-12-17T21:52:47.000Z,-4.60
2022-12-17T21:56:12.993Z,-4.60
2022-12-17T21:59:40.063Z,-4.50
2022-12-17T22:03:03.227Z,-4.40
2022-12-17T22:06:29.872Z,-4.40
2022-12-17T22:10:26.379Z,-4.40
2022-12-17T22:14:08.590Z,-4.30
2022-12-17T22:17:34.312Z,-4.20
2022-12-17T22:21:00.373Z,-4.20
2022-12-17T22:24:24.666Z,-4.40
2022-12-17T22:27:47.554Z,-4.50
2022-12-17T22:31:31.130Z,-4.50
2022-12-17T22:35:56.096Z,-4.50
2022-12-17T22:43:12.989Z,-4.50
2022-12-17T22:44:35.842Z,-4.70
2022-12-17T22:46:24.907Z,-4.80
2022-12-17T22:49:47.886Z,-4.60
2022-12-17T22:53:12.313Z,-4.50
2022-12-17T22:57:08.639Z,-4.50
2022-12-17T23:00:23.264Z,-4.50
2022-12-17T23:03:46.274Z,-4.60
2022-12-17T23:07:09.308Z,-4.70
2022-12-17T23:10:33.618Z,-4.80
2022-12-17T23:13:56.962Z,-4.80
2022-12-17T23:17:19.871Z,-4.80
2022-12-17T23:20:42.762Z,-4.80
2022-12-17T23:24:06.534Z,-4.80
2022-12-17T23:27:31.281Z,-4.90
2022-12-17T23:30:54.336Z,-4.80
2022-12-17T23:34:18.010Z,-4.80
2022-12-17T23:37:41.389Z,-5.00
2022-12-17T23:41:06.040Z,-5.10
2022-12-17T23:44:30.349Z,-5.00
2022-12-17T23:47:53.272Z,-4.90
2022-12-17T23:51:19.390Z,-4.90
2022-12-17T23:54:42.300Z,-4.80
2022-12-17T23:58:05.224Z,-4.90
